Time;durP1;ratioP1;P1;durP2;ratioP2;P2;SDS_P1;SDS_P2;PMS_P1;PMS_P2;Temp;Humidity;BMP_temperature;BMP_pressure;BME280_temperature;BME280_humidity;BME280_pressure;Samples;Min_cycle;Max_cycle;Signal;HPM_P1;HPM_P2
2023/09/02 00:00:43;;;;;;;4.82;2.70;;;16.20;99.90;;;;;;4889140;29;20040;-75
2023/09/02 00:03:40;;;;;;;5.53;3.20;;;16.20;99.90;;;;;;4882488;29;20077;-75
2023/09/02 00:06:34;;;;;;;5.90;2.80;;;16.20;99.90;;;;;;4887364;29;20041;-75
2023/09/02 00:09:20;;;;;;;5.68;3.08;;;16.20;99.90;;;;;;4874987;29;20033;-75
2023/09/02 00:11:57;;;;;;;5.28;2.50;;;16.10;99.90;;;;;;4887394;29;20326;-74
2023/09/02 00:14:28;;;;;;;6.33;3.33;;;16.10;99.90;;;;;;4888680;29;20039;-76
2023/09/02 00:16:54;;;;;;;6.03;3.08;;;16.10;99.90;;;;;;4872192;29;20037;-76
2023/09/02 00:19:21;;;;;;;5.82;3.25;;;16.10;99.90;;;;;;4872465;29;20101;-75
2023/09/02 00:22:02;;;;;;;5.88;3.13;;;16.10;99.90;;;;;;4871433;29;20028;-75
2023/09/02 00:24:57;;;;;;;5.93;3.17;;;16.00;99.90;;;;;;4852005;29;20129;-76
2023/09/02 00:27:22;;;;;;;6.25;3.13;;;16.00;99.90;;;;;;4871912;29;20033;-75
2023/09/02 00:29:48;;;;;;;5.05;3.08;;;16.00;99.90;;;;;;4871614;29;20104;-76
2023/09/02 08:03:09;;;;;;;4.20;1.75;;;20.90;99.90;;;;;;4915595;23;20116;-75
2023/09/02 08:05:39;;;;;;;2.72;1.55;;;21.00;99.90;;;;;;4902344;29;20047;-75
2023/09/02 08:08:17;;;;;;;4.05;2.10;;;21.20;99.90;;;;;;4903892;29;20092;-74
2023/09/02 08:10:43;;;;;;;5.45;2.20;;;21.30;99.90;;;;;;4893926;29;20047;-73
2023/09/02 08:13:27;;;;;;;2.95;1.80;;;21.30;99.90;;;;;;4888735;29;20328;-75
2023/09/02 08:15:52;;;;;;;3.28;1.73;;;21.50;99.90;;;;;;4888554;29;20043;-76
2023/09/02 08:18:18;;;;;;;4.15;1.80;;;21.60;99.90;;;;;;4888358;29;20271;-76
2023/09/02 08:20:44;;;;;;;3.35;1.70;;;21.70;99.90;;;;;;4877233;29;20044;-76
2023/09/02 08:23:10;;;;;;;4.68;1.92;;;21.80;99.90;;;;;;4875283;29;20032;-78
2023/09/02 08:25:35;;;;;;;6.03;1.95;;;21.70;99.90;;;;;;4906648;29;20048;-74
2023/09/02 08:28:01;;;;;;;4.78;2.22;;;21.80;99.90;;;;;;4875789;29;20029;-75
2023/09/02 08:30:27;;;;;;;4.28;1.83;;;21.70;99.90;;;;;;4910541;29;20032;-77
2023/09/02 08:32:52;;;;;;;5.55;2.38;;;21.70;99.90;;;;;;4926126;29;20028;-78
2023/09/02 08:35:18;;;;;;;4.93;2.22;;;21.80;99.90;;;;;;4904740;29;20028;-75
2023/09/02 08:37:46;;;;;;;5.45;2.20;;;21.90;99.90;;;;;;4910530;29;20039;-80
2023/09/02 08:40:19;;;;;;;4.55;2.28;;;22.00;99.90;;;;;;4926215;29;20222;-75
2023/09/02 08:42:47;;;;;;;6.93;2.30;;;21.90;99.90;;;;;;4926212;29;20036;-76
2023/09/02 08:45:23;;;;;;;3.92;1.98;;;22.00;99.90;;;;;;4926351;29;20040;-75
2023/09/02 08:48:01;;;;;;;3.38;1.70;;;22.00;99.90;;;;;;4893601;29;20028;-75
2023/09/02 08:50:32;;;;;;;4.25;2.17;;;22.10;99.90;;;;;;4920195;29;20033;-75
2023/09/02 08:52:57;;;;;;;3.72;1.75;;;22.20;99.90;;;;;;4907891;29;20387;-76
2023/09/02 08:55:25;;;;;;;4.05;1.67;;;22.30;99.90;;;;;;4897585;29;20032;-76
2023/09/02 08:58:38;;;;;;;4.68;1.65;;;22.30;99.90;;;;;;4902684;29;20040;-75
2023/09/02 09:01:04;;;;;;;4.05;1.40;;;22.40;99.90;;;;;;4903057;29;20058;-75
2023/09/02 09:03:41;;;;;;;3.88;1.70;;;22.50;99.90;;;;;;4931777;29;20157;-76
2023/09/02 09:06:09;;;;;;;4.35;1.55;;;22.70;99.90;;;;;;4889970;29;20043;-76
2023/09/02 09:08:59;;;;;;;7.10;1.70;;;22.70;99.90;;;;;;4910135;29;20033;-77
2023/09/02 09:11:37;;;;;;;3.85;1.70;;;22.70;99.90;;;;;;4891552;29;20071;-77
2023/09/02 09:14:05;;;;;;;3.20;1.77;;;22.80;99.90;;;;;;4929241;29;20035;-75
2023/09/02 09:16:36;;;;;;;5.13;1.70;;;22.80;99.90;;;;;;4928978;29;20040;-75
2023/09/02 09:19:05;;;;;;;3.75;1.63;;;23.00;99.90;;;;;;4929519;29;20035;-77
2023/09/02 09:21:31;;;;;;;4.85;1.70;;;23.10;99.90;;;;;;4929121;29;20039;-76
2023/09/02 09:23:57;;;;;;;4.10;1.70;;;23.10;99.90;;;;;;4929748;29;20360;-75
2023/09/02 09:26:27;;;;;;;3.60;1.67;;;23.20;99.70;;;;;;4929385;29;20342;-75
2023/09/02 09:29:01;;;;;;;4.82;1.75;;;23.40;99.70;;;;;;4929165;29;20040;-75
2023/09/02 09:31:35;;;;;;;3.47;1.40;;;23.40;99.40;;;;;;4928793;29;20028;-75
2023/09/02 09:34:06;;;;;;;4.28;2.10;;;23.50;99.50;;;;;;4929225;29;20051;-75
2023/09/02 09:36:36;;;;;;;3.60;1.60;;;23.60;99.10;;;;;;4928797;29;20059;-75
2023/09/02 09:39:04;;;;;;;3.78;1.50;;;23.70;98.80;;;;;;4922952;29;20060;-75
2023/09/02 09:41:50;;;;;;;3.67;1.50;;;23.80;98.90;;;;;;4898778;29;20348;-77
2023/09/02 09:44:25;;;;;;;4.07;1.88;;;23.90;98.30;;;;;;4912714;29;20083;-77
2023/09/02 09:46:54;;;;;;;3.90;1.27;;;24.00;98.30;;;;;;4929278;29;20035;-75
2023/09/02 09:49:30;;;;;;;3.25;1.38;;;24.10;97.80;;;;;;4928479;29;20034;-77
2023/09/02 09:52:01;;;;;;;3.00;1.38;;;24.20;97.90;;;;;;4928688;29;20074;-78
2023/09/02 09:54:40;;;;;;;3.85;1.80;;;24.30;97.60;;;;;;4896028;29;20036;-78
2023/09/02 09:57:29;;;;;;;3.88;1.40;;;24.40;97.70;;;;;;4922342;29;20025;-77
2023/09/02 09:59:56;;;;;;;3.10;1.52;;;24.50;97.10;;;;;;4893173;29;20036;-76
2023/09/02 10:09:49;;;;;;;2.75;1.42;;;24.80;96.10;;;;;;4928892;29;20105;-76
2023/09/02 10:12:16;;;;;;;4.07;1.73;;;24.90;96.40;;;;;;4928567;29;20032;-77
2023/09/02 10:14:46;;;;;;;9.57;3.95;;;25.10;96.10;;;;;;4895990;29;20024;-76
2023/09/02 10:17:12;;;;;;;3.80;1.30;;;25.30;94.90;;;;;;4928211;29;20032;-76
2023/09/02 10:19:38;;;;;;;2.63;1.40;;;25.40;93.80;;;;;;4927983;29;20613;-76
2023/09/02 10:22:05;;;;;;;2.45;1.08;;;25.50;93.50;;;;;;4928759;29;20076;-76
2023/09/02 10:25:05;;;;;;;2.60;1.30;;;25.60;92.60;;;;;;4928076;29;20210;-76
2023/09/02 10:28:22;;;;;;;2.72;1.10;;;25.80;92.70;;;;;;4836192;29;20136;-76
2023/09/02 10:31:30;;;;;;;3.13;1.40;;;25.90;92.80;;;;;;4919747;29;20040;-76
2023/09/02 10:37:57;;;;;;;3.20;1.05;;;26.20;91.80;;;;;;4908807;29;20319;-75
2023/09/02 10:40:59;;;;;;;2.63;1.17;;;26.30;91.20;;;;;;4905686;29;20040;-76
2023/09/02 10:43:28;;;;;;;4.40;1.38;;;26.40;90.60;;;;;;4891919;29;20089;-74
2023/09/02 10:46:00;;;;;;;3.28;1.20;;;26.60;90.10;;;;;;4891926;29;20029;-77
2023/09/02 10:48:57;;;;;;;2.72;1.10;;;26.70;89.20;;;;;;4908489;29;20028;-77
2023/09/02 10:51:44;;;;;;;2.38;0.90;;;26.70;88.10;;;;;;4894777;29;20234;-76
2023/09/02 10:54:09;;;;;;;2.22;1.00;;;26.80;88.00;;;;;;4920642;29;20044;-76
2023/09/02 10:56:45;;;;;;;2.45;1.10;;;27.00;88.40;;;;;;4899597;29;20079;-76
2023/09/02 11:00:12;;;;;;;2.10;0.90;;;27.10;86.60;;;;;;4892425;29;20059;-76
2023/09/02 11:06:30;;;;;;;2.10;0.93;;;27.60;84.10;;;;;;4813896;29;20074;-75
2023/09/02 11:09:33;;;;;;;2.90;1.05;;;28.00;82.20;;;;;;4810580;29;20070;-75
2023/09/02 11:12:09;;;;;;;1.92;0.90;;;28.00;81.70;;;;;;4788047;30;20044;-75
2023/09/02 11:14:51;;;;;;;;;;;;;;;;;;;;;
2023/09/02 11:20:48;;;;;;;2.97;1.35;;;28.10;82.40;;;;;;4757388;30;20045;-74
2023/09/02 11:23:21;;;;;;;3.25;0.90;;;29.00;81.20;;;;;;4742866;30;20350;-75
2023/09/02 11:26:16;;;;;;;3.35;0.90;;;30.20;77.40;;;;;;4742854;30;20093;-76
2023/09/02 11:29:32;;;;;;;1.70;0.90;;;30.30;75.20;;;;;;4742773;30;20109;-76
2023/09/02 11:32:05;;;;;;;2.03;0.93;;;30.10;75.40;;;;;;4754023;30;20093;-76
2023/09/02 11:34:31;;;;;;;2.53;0.88;;;31.30;72.60;;;;;;4796310;30;20035;-76
2023/09/02 11:37:10;;;;;;;3.80;1.02;;;32.30;69.60;;;;;;4811585;29;20236;-76
2023/09/02 11:40:25;;;;;;;2.65;1.08;;;33.00;67.80;;;;;;4795843;30;20245;-74
2023/09/02 11:43:10;;;;;;;1.75;0.70;;;33.90;66.10;;;;;;4837217;29;20125;-78
2023/09/02 11:45:58;;;;;;;1.70;0.70;;;34.60;64.70;;;;;;4879565;29;20070;-77
2023/09/02 11:48:52;;;;;;;2.17;0.80;;;35.60;62.50;;;;;;4913040;29;20095;-76
2023/09/02 11:51:20;;;;;;;2.17;0.98;;;35.90;61.00;;;;;;4910174;29;20087;-76
2023/09/02 11:53:55;;;;;;;1.27;0.63;;;37.40;59.50;;;;;;4926529;29;20246;-76
2023/09/02 11:56:23;;;;;;;1.65;0.68;;;38.00;58.10;;;;;;4910721;29;20032;-76
2023/09/02 11:59:30;;;;;;;1.80;0.82;;;38.30;57.40;;;;;;4927753;29;20052;-76
2023/09/02 12:02:15;;;;;;;2.55;1.00;;;38.10;57.40;;;;;;4909229;29;20111;-75
2023/09/02 12:04:47;;;;;;;1.95;0.85;;;37.70;56.30;;;;;;4938865;28;20052;-76
2023/09/02 12:07:14;;;;;;;1.98;0.80;;;37.60;56.40;;;;;;4901669;29;20037;-78
2023/09/02 12:12:26;;;;;;;1.95;0.70;;;38.30;57.20;;;;;;4880725;29;20045;-78
2023/09/02 12:15:03;;;;;;;3.15;0.70;;;38.10;57.30;;;;;;4876168;29;20041;-77
2023/09/02 12:17:29;;;;;;;2.08;0.90;;;38.60;57.30;;;;;;4889613;29;20116;-79
2023/09/02 12:19:55;;;;;;;1.90;0.93;;;39.20;54.60;;;;;;4887319;29;20354;-77
2023/09/02 12:22:21;;;;;;;2.20;0.82;;;40.20;55.20;;;;;;4887071;29;20093;-77
2023/09/02 12:24:47;;;;;;;1.42;0.75;;;40.00;52.70;;;;;;4886590;29;20052;-76
2023/09/02 12:27:16;;;;;;;2.15;1.10;;;40.90;53.00;;;;;;4886715;29;20077;-78
2023/09/02 12:30:14;;;;;;;2.00;1.00;;;40.80;52.70;;;;;;4886630;29;20128;-77
2023/09/02 12:32:40;;;;;;;2.50;0.88;;;39.30;53.40;;;;;;4867720;29;20045;-77
2023/09/02 12:35:15;;;;;;;2.60;0.98;;;38.80;54.40;;;;;;4868127;29;20335;-78
2023/09/02 12:37:41;;;;;;;2.05;1.00;;;38.40;54.30;;;;;;4879181;29;20037;-79
2023/09/02 12:40:14;;;;;;;1.52;0.80;;;37.70;54.70;;;;;;4912740;29;20086;-77
2023/09/02 12:42:53;;;;;;;2.35;0.95;;;36.70;57.00;;;;;;4928054;29;20047;-76
2023/09/02 12:45:32;;;;;;;2.22;0.90;;;35.60;56.80;;;;;;4929877;29;20211;-76
2023/09/02 12:48:13;;;;;;;1.85;0.90;;;35.00;58.70;;;;;;4930140;29;20036;-76
2023/09/02 12:50:39;;;;;;;2.53;1.00;;;36.80;57.40;;;;;;4920357;29;20039;-76
2023/09/02 12:53:17;;;;;;;2.10;0.98;;;38.60;55.40;;;;;;4929884;29;20036;-77
2023/09/02 12:55:47;;;;;;;2.33;0.93;;;39.90;53.70;;;;;;4928657;29;20337;-77
2023/09/02 12:58:30;;;;;;;1.70;0.80;;;40.40;52.00;;;;;;4926486;29;20067;-77
2023/09/02 13:01:04;;;;;;;1.90;0.90;;;41.20;52.00;;;;;;4913045;29;20091;-79
2023/09/02 13:03:32;;;;;;;3.17;1.10;;;42.10;51.20;;;;;;4929766;29;20048;-75
2023/09/02 13:06:01;;;;;;;2.58;0.98;;;42.80;50.50;;;;;;4929407;29;20349;-77
2023/09/02 13:08:26;;;;;;;2.83;0.90;;;42.80;48.90;;;;;;4929740;29;20051;-77
2023/09/02 13:11:49;;;;;;;2.03;0.93;;;41.50;50.60;;;;;;4912467;29;20083;-77
2023/09/02 13:14:17;;;;;;;2.78;0.90;;;41.70;50.00;;;;;;4929037;29;20326;-78
2023/09/02 13:16:43;;;;;;;1.90;0.80;;;43.60;50.70;;;;;;4928050;29;20242;-78
2023/09/02 13:19:09;;;;;;;2.33;1.00;;;44.70;49.30;;;;;;4911799;29;20043;-79
2023/09/02 13:21:44;;;;;;;1.63;0.88;;;45.00;47.40;;;;;;4889587;29;20250;-77
2023/09/02 13:24:21;;;;;;;1.63;0.90;;;43.90;47.80;;;;;;4929393;29;20036;-77
2023/09/02 13:26:49;;;;;;;2.05;0.95;;;43.50;47.30;;;;;;4928958;29;20043;-77
2023/09/02 13:29:19;;;;;;;3.10;0.95;;;42.30;49.20;;;;;;4912832;29;20023;-78
2023/09/02 13:31:49;;;;;;;1.77;0.90;;;42.20;48.80;;;;;;4933558;29;20031;-77
2023/09/02 13:34:32;;;;;;;1.67;0.85;;;40.60;49.40;;;;;;4928539;29;20071;-79
2023/09/02 13:37:19;;;;;;;3.25;0.95;;;40.20;50.50;;;;;;4915655;29;20020;-76
2023/09/02 13:39:46;;;;;;;2.72;1.20;;;41.10;50.00;;;;;;4928115;29;20325;-77
2023/09/02 13:42:18;;;;;;;1.45;0.80;;;40.50;50.10;;;;;;4913009;29;20387;-75
2023/09/02 13:44:51;;;;;;;2.45;1.00;;;40.40;51.30;;;;;;4906287;29;20309;-75
2023/09/02 13:47:18;;;;;;;2.20;1.10;;;40.00;51.50;;;;;;4896254;29;20325;-75
2023/09/02 13:49:53;;;;;;;2.33;0.83;;;39.70;52.50;;;;;;4920934;29;20032;-75
2023/09/02 13:52:25;;;;;;;1.73;0.88;;;40.60;51.10;;;;;;4923483;29;20318;-78
2023/09/02 13:54:55;;;;;;;2.30;1.10;;;41.90;49.80;;;;;;4938588;29;20339;-77
2023/09/02 13:57:24;;;;;;;1.67;0.80;;;41.70;49.30;;;;;;4905756;29;20234;-77
2023/09/02 13:59:56;;;;;;;5.95;1.20;;;40.30;50.20;;;;;;4898427;29;20032;-76
2023/09/02 14:02:24;;;;;;;1.98;0.75;;;40.80;50.20;;;;;;4918019;29;20050;-77
2023/09/02 14:04:53;;;;;;;1.75;0.70;;;42.10;49.80;;;;;;4899639;29;20044;-76
2023/09/02 14:07:20;;;;;;;1.83;0.88;;;43.00;49.70;;;;;;4905880;29;20036;-76
2023/09/02 14:09:48;;;;;;;3.33;1.02;;;44.20;47.60;;;;;;4895536;29;20024;-76
2023/09/02 14:12:18;;;;;;;2.63;1.00;;;44.20;47.40;;;;;;4937899;29;20388;-77
2023/09/02 14:14:47;;;;;;;2.20;0.70;;;42.40;49.70;;;;;;4902285;29;20238;-77
2023/09/02 14:17:14;;;;;;;1.35;0.63;;;40.30;49.70;;;;;;4920041;29;20058;-76
2023/09/02 14:19:50;;;;;;;2.45;0.80;;;39.10;51.30;;;;;;4912823;29;20051;-76
2023/09/02 14:22:16;;;;;;;2.70;0.80;;;37.40;52.90;;;;;;4896499;29;20055;-76
2023/09/02 14:24:41;;;;;;;2.20;1.20;;;36.20;54.90;;;;;;4876824;29;20035;-76
2023/09/02 14:27:14;;;;;;;1.85;0.90;;;36.60;55.40;;;;;;4878314;29;20021;-77
2023/09/02 14:29:41;;;;;;;3.05;1.40;;;36.60;53.80;;;;;;4909777;29;20041;-75
2023/09/02 14:32:07;;;;;;;4.00;1.00;;;37.00;54.30;;;;;;4927036;29;20043;-74
2023/09/02 14:34:34;;;;;;;2.25;0.88;;;38.50;52.60;;;;;;4943240;29;20040;-76
2023/09/02 14:37:04;;;;;;;;;;;40.20;51.50;;;;;;4911420;29;20028;-76
2023/09/02 14:39:33;;;;;;;2.60;1.00;;;41.80;49.40;;;;;;4911104;29;19938;-75
2023/09/02 14:41:59;;;;;;;2.45;0.90;;;42.70;49.10;;;;;;4927185;29;20103;-74
2023/09/02 14:44:25;;;;;;;3.92;1.65;;;43.10;48.00;;;;;;4910620;29;20046;-75
2023/09/02 14:46:51;;;;;;;2.50;0.98;;;43.90;47.30;;;;;;4927153;29;20067;-75
2023/09/02 14:49:17;;;;;;;3.28;1.27;;;44.90;47.70;;;;;;4910756;29;20040;-76
2023/09/02 14:51:43;;;;;;;3.53;1.30;;;44.90;46.60;;;;;;4894876;29;20023;-77
2023/09/02 14:54:14;;;;;;;2.65;0.80;;;45.30;46.40;;;;;;4895570;29;20798;-74
2023/09/02 14:56:44;;;;;;;1.83;0.93;;;45.50;46.00;;;;;;4894571;29;20423;-75
2023/09/02 14:59:19;;;;;;;1.95;0.85;;;45.20;45.70;;;;;;4927490;29;20107;-75
2023/09/02 15:01:46;;;;;;;3.10;1.13;;;45.20;46.00;;;;;;4926498;29;20040;-75
2023/09/02 15:04:16;;;;;;;2.07;0.87;;;45.90;45.50;;;;;;4926148;29;20036;-78
2023/09/02 15:06:48;;;;;;;1.85;0.88;;;46.40;45.60;;;;;;4926838;29;20690;-76
2023/09/02 15:09:33;;;;;;;2.13;1.05;;;46.40;45.70;;;;;;4927495;29;20317;-76
2023/09/02 15:11:59;;;;;;;1.40;0.75;;;45.90;45.10;;;;;;4927216;29;20102;-77
2023/09/02 15:14:26;;;;;;;2.00;0.98;;;45.20;45.60;;;;;;4927429;29;20036;-76
2023/09/02 15:16:57;;;;;;;1.58;0.75;;;44.60;46.70;;;;;;4894485;29;20051;-76
2023/09/02 15:19:24;;;;;;;1.88;0.93;;;45.30;47.60;;;;;;4895095;29;20024;-76
2023/09/02 15:21:51;;;;;;;1.90;0.80;;;45.50;45.50;;;;;;4894804;29;20030;-77
2023/09/02 15:24:30;;;;;;;2.00;0.80;;;45.60;45.40;;;;;;4894987;29;20306;-75
2023/09/02 15:26:57;;;;;;;2.97;1.00;;;46.40;45.70;;;;;;4894578;29;20128;-75
2023/09/02 15:29:24;;;;;;;2.00;0.95;;;46.90;44.30;;;;;;4910714;29;20024;-76
2023/09/02 15:31:52;;;;;;;2.38;0.73;;;46.80;46.40;;;;;;4894328;29;20222;-75
2023/09/02 15:34:49;;;;;;;2.17;1.02;;;46.60;44.70;;;;;;4925914;29;20103;-75
2023/09/02 15:37:21;;;;;;;1.67;0.75;;;45.20;44.90;;;;;;4926888;29;20099;-74
2023/09/02 15:39:51;;;;;;;2.55;0.90;;;45.10;45.30;;;;;;4926348;29;20036;-76
2023/09/02 15:42:17;;;;;;;5.13;1.00;;;45.60;45.70;;;;;;4927060;29;20036;-76
2023/09/02 15:44:46;;;;;;;1.23;0.65;;;45.90;44.70;;;;;;4926797;29;20111;-76
2023/09/02 15:47:12;;;;;;;1.50;0.70;;;45.70;45.20;;;;;;4910020;29;20035;-78
2023/09/02 15:49:38;;;;;;;2.50;0.90;;;45.10;45.50;;;;;;4926790;29;20024;-76
2023/09/02 15:52:04;;;;;;;1.88;0.80;;;44.90;47.60;;;;;;4909332;29;20317;-76
2023/09/02 15:54:31;;;;;;;1.65;0.75;;;45.20;45.10;;;;;;4926881;29;20045;-76
2023/09/02 15:56:57;;;;;;;1.90;0.80;;;44.70;47.70;;;;;;4893847;29;20099;-75
2023/09/02 15:59:22;;;;;;;1.90;0.77;;;45.50;45.70;;;;;;4927026;29;20293;-78
2023/09/02 16:02:07;;;;;;;4.03;0.93;;;45.70;46.10;;;;;;4909015;29;20202;-78
2023/09/02 16:04:46;;;;;;;1.88;0.90;;;45.90;44.70;;;;;;4908322;29;20095;-78
2023/09/02 16:10:21;;;;;;;3.03;1.10;;;46.40;44.70;;;;;;5162500;27;20476;-79
2023/09/02 16:13:10;;;;;;;2.53;0.90;;;46.20;44.30;;;;;;5143437;27;20401;-79
2023/09/02 16:15:38;;;;;;;2.95;1.00;;;45.90;44.90;;;;;;5162393;27;20198;-81
2023/09/02 16:18:08;;;;;;;1.80;0.98;;;45.60;46.30;;;;;;5126681;27;20015;-76
2023/09/02 16:20:52;;;;;;;2.20;1.10;;;45.60;45.10;;;;;;5143158;27;20026;-77
2023/09/02 16:23:18;;;;;;;3.15;1.02;;;45.80;45.70;;;;;;5141661;28;20024;-76
2023/09/02 16:25:47;;;;;;;2.42;0.80;;;45.90;46.30;;;;;;5141319;28;20060;-78
2023/09/02 16:28:15;;;;;;;2.95;1.30;;;44.90;45.10;;;;;;5144528;28;20031;-76
2023/09/02 16:30:58;;;;;;;2.25;1.20;;;44.60;45.70;;;;;;5114587;28;20019;-79
2023/09/02 16:33:44;;;;;;;2.38;1.10;;;43.80;45.70;;;;;;5114214;28;20031;-80
2023/09/02 16:36:13;;;;;;;2.38;1.10;;;42.70;47.60;;;;;;5150047;27;20277;-78
2023/09/02 16:38:39;;;;;;;2.80;1.15;;;42.40;48.40;;;;;;5154520;27;20092;-79
2023/09/02 16:41:11;;;;;;;2.58;1.20;;;42.10;47.60;;;;;;5171231;27;20039;-79
2023/09/02 16:43:36;;;;;;;2.35;1.00;;;40.80;48.80;;;;;;5161741;27;20034;-80
2023/09/02 16:46:02;;;;;;;2.95;1.30;;;40.90;50.30;;;;;;5143144;27;20030;-80
2023/09/02 16:48:48;;;;;;;4.43;2.00;;;41.50;50.20;;;;;;5142978;27;20350;-76
2023/09/02 16:51:26;;;;;;;2.25;1.25;;;42.20;48.30;;;;;;5160952;27;20077;-77
2023/09/02 16:53:51;;;;;;;3.53;1.30;;;41.80;49.30;;;;;;5160965;27;20037;-80
2023/09/02 16:56:22;;;;;;;2.10;1.10;;;42.10;47.90;;;;;;5149195;27;20309;-77
2023/09/02 16:59:06;;;;;;;3.72;1.63;;;42.40;49.20;;;;;;5105286;28;20043;-80
2023/09/02 17:06:04;;;;;;;2.10;1.20;;;41.70;48.10;;;;;;5137317;27;20090;-80
2023/09/02 17:08:30;;;;;;;2.30;1.00;;;40.80;49.00;;;;;;5060286;28;20044;-78
2023/09/02 17:10:56;;;;;;;2.55;1.10;;;39.00;52.50;;;;;;5059941;28;20040;-78
2023/09/02 17:13:22;;;;;;;2.80;1.10;;;37.60;53.50;;;;;;5078643;28;20282;-77
2023/09/02 17:15:48;;;;;;;2.72;0.88;;;36.10;55.30;;;;;;5076509;28;20323;-78
2023/09/02 17:18:15;;;;;;;2.28;1.20;;;35.00;58.40;;;;;;5077031;28;20036;-77
2023/09/02 17:20:46;;;;;;;3.10;1.58;;;34.20;56.80;;;;;;5068276;28;20100;-79
2023/09/02 17:23:13;;;;;;;3.13;1.35;;;33.50;58.40;;;;;;5064056;28;20046;-78
2023/09/02 17:25:42;;;;;;;3.47;1.75;;;32.70;59.80;;;;;;5047211;28;20032;-78
2023/09/02 17:28:14;;;;;;;2.63;1.40;;;32.20;61.40;;;;;;5063298;28;20295;-77
2023/09/02 17:30:39;;;;;;;2.58;1.38;;;31.80;62.40;;;;;;5063714;28;20033;-77
2023/09/02 17:33:05;;;;;;;3.90;1.73;;;31.40;63.80;;;;;;5063461;28;20471;-78
2023/09/02 17:35:31;;;;;;;3.42;1.88;;;31.10;62.70;;;;;;5040269;28;20026;-77
2023/09/02 17:37:57;;;;;;;5.22;1.80;;;30.80;64.50;;;;;;5043050;28;20056;-76
2023/09/02 17:40:23;;;;;;;2.90;1.55;;;30.70;67.40;;;;;;5027135;28;20315;-76
2023/09/02 17:42:49;;;;;;;3.42;1.73;;;30.60;66.20;;;;;;5034775;28;20040;-76
2023/09/02 17:45:19;;;;;;;3.80;1.90;;;30.40;66.90;;;;;;5086069;28;20088;-77
2023/09/02 17:47:45;;;;;;;3.15;1.85;;;30.20;68.30;;;;;;5126115;28;20092;-76
2023/09/02 17:50:11;;;;;;;3.67;2.45;;;29.90;66.80;;;;;;5124241;28;20032;-78
2023/09/02 17:52:38;;;;;;;4.70;3.00;;;29.70;69.50;;;;;;5121938;27;20014;-76
2023/09/02 17:55:04;;;;;;;4.97;2.58;;;29.50;69.60;;;;;;5146132;27;20031;-77
2023/09/02 17:57:30;;;;;;;3.85;1.98;;;29.30;70.20;;;;;;5135493;27;20027;-77
2023/09/02 17:59:58;;;;;;;4.07;1.98;;;29.10;70.30;;;;;;5125545;28;20343;-77
2023/09/02 18:02:24;;;;;;;5.13;2.10;;;28.90;71.80;;;;;;5126113;28;20301;-78
2023/09/02 18:04:50;;;;;;;3.58;1.90;;;28.70;72.00;;;;;;5107399;28;20031;-80
2023/09/02 18:07:16;;;;;;;3.67;1.85;;;28.50;72.00;;;;;;5107680;28;20044;-75
2023/09/02 18:09:43;;;;;;;4.45;1.90;;;28.30;71.60;;;;;;5125122;28;20041;-76
2023/09/02 18:12:09;;;;;;;5.78;2.33;;;28.10;71.70;;;;;;5125251;28;20281;-78
2023/09/02 18:14:36;;;;;;;6.40;3.05;;;27.80;72.40;;;;;;5125662;28;20077;-77
2023/09/02 18:17:03;;;;;;;4.43;2.80;;;27.50;74.00;;;;;;5106830;28;20055;-76
2023/09/02 18:19:28;;;;;;;5.22;2.88;;;27.30;75.50;;;;;;5125332;28;20035;-77
2023/09/02 18:21:54;;;;;;;5.97;3.35;;;27.20;77.60;;;;;;5125014;28;20095;-76
2023/09/02 18:24:20;;;;;;;6.55;2.80;;;27.10;77.20;;;;;;5125561;28;20355;-78
2023/09/02 18:26:45;;;;;;;5.00;3.15;;;27.00;76.60;;;;;;5125058;28;20038;-77
2023/09/02 18:29:11;;;;;;;5.57;3.20;;;26.70;76.60;;;;;;5125470;28;20040;-77
2023/09/02 18:31:37;;;;;;;7.75;3.53;;;26.40;78.30;;;;;;5124174;28;20309;-77
2023/09/02 18:34:02;;;;;;;5.85;3.63;;;26.10;79.10;;;;;;5124009;28;20024;-76
2023/09/02 18:36:28;;;;;;;7.57;3.88;;;26.10;78.60;;;;;;5139879;27;20313;-78
2023/09/02 18:38:54;;;;;;;5.60;3.33;;;25.90;80.30;;;;;;5145000;27;20031;-76
2023/09/02 18:41:21;;;;;;;6.55;3.53;;;25.80;81.70;;;;;;5145357;27;20019;-78
2023/09/02 18:43:48;;;;;;;6.72;3.40;;;25.80;81.20;;;;;;5145205;27;20039;-78
2023/09/02 18:46:14;;;;;;;5.82;3.40;;;25.70;81.80;;;;;;5126695;27;20039;-78
2023/09/02 18:48:41;;;;;;;4.32;3.05;;;25.60;81.70;;;;;;5127250;27;20103;-78
2023/09/02 18:51:08;;;;;;;5.83;3.23;;;25.50;81.30;;;;;;5133736;27;20348;-78
2023/09/02 18:53:33;;;;;;;6.00;3.17;;;25.50;82.60;;;;;;5124675;28;20429;-78
2023/09/02 18:55:59;;;;;;;5.70;3.15;;;25.40;81.70;;;;;;5124097;28;20019;-77
2023/09/02 18:58:25;;;;;;;5.47;3.00;;;25.30;82.70;;;;;;5106601;28;20043;-78
2023/09/02 19:00:54;;;;;;;6.78;3.63;;;25.30;83.50;;;;;;5089332;28;20023;-78
2023/09/02 19:03:20;;;;;;;6.38;3.15;;;25.10;83.40;;;;;;5089731;28;20094;-78
2023/09/02 19:05:46;;;;;;;5.70;3.63;;;24.90;83.40;;;;;;5106046;28;20028;-78
2023/09/02 19:08:12;;;;;;;5.45;3.50;;;24.80;85.10;;;;;;5105715;28;20067;-77
2023/09/02 19:10:37;;;;;;;6.35;3.40;;;24.70;84.80;;;;;;5124460;28;20039;-78
2023/09/02 19:13:03;;;;;;;5.63;3.35;;;24.50;85.30;;;;;;5123714;28;20034;-79
2023/09/02 19:15:29;;;;;;;5.97;3.35;;;24.40;86.20;;;;;;5124540;28;20209;-77
2023/09/02 19:17:55;;;;;;;6.97;3.45;;;24.30;85.80;;;;;;5105748;28;20031;-78
2023/09/02 19:20:20;;;;;;;6.55;3.95;;;24.10;86.50;;;;;;5106147;28;20033;-80
2023/09/02 19:22:46;;;;;;;7.82;4.13;;;23.80;87.50;;;;;;5124067;28;20055;-77
2023/09/02 19:25:15;;;;;;;6.32;4.50;;;23.70;89.20;;;;;;5105832;28;20050;-78
2023/09/02 19:27:42;;;;;;;7.38;4.28;;;23.60;89.70;;;;;;5088854;28;20032;-78
2023/09/02 19:30:08;;;;;;;6.95;3.78;;;23.50;90.00;;;;;;5105209;28;20102;-78
2023/09/02 19:32:35;;;;;;;5.82;3.97;;;23.40;90.00;;;;;;5123894;28;20031;-78
2023/09/02 19:35:03;;;;;;;6.13;3.80;;;23.30;90.00;;;;;;5107511;27;20027;-78
2023/09/02 19:37:29;;;;;;;6.60;4.03;;;23.20;90.30;;;;;;5126116;27;20022;-78
2023/09/02 19:39:56;;;;;;;7.43;3.90;;;23.10;90.40;;;;;;5125693;27;20071;-78
2023/09/02 19:42:22;;;;;;;7.22;3.70;;;22.90;90.60;;;;;;5126034;27;20027;-77
2023/09/02 19:44:47;;;;;;;6.40;3.97;;;22.80;90.90;;;;;;5125708;27;20023;-78
2023/09/02 19:47:13;;;;;;;6.80;3.78;;;22.60;91.30;;;;;;5143749;27;20386;-77
2023/09/02 19:49:39;;;;;;;8.95;3.75;;;22.70;91.40;;;;;;5144369;27;20027;-78
2023/09/02 19:52:05;;;;;;;5.22;3.22;;;22.70;91.30;;;;;;5143568;27;20023;-78
2023/09/02 19:54:31;;;;;;;4.80;2.80;;;22.60;91.30;;;;;;5144546;27;20037;-79
2023/09/02 19:56:56;;;;;;;5.40;3.13;;;22.50;91.50;;;;;;5143738;27;20030;-78
2023/09/02 19:59:22;;;;;;;5.40;3.13;;;22.40;91.40;;;;;;5144234;27;20039;-77
2023/09/02 20:01:49;;;;;;;5.05;3.38;;;22.30;91.80;;;;;;5125880;27;20034;-77
2023/09/02 20:04:15;;;;;;;5.15;3.33;;;22.20;92.20;;;;;;5144091;27;20034;-77
2023/09/02 20:06:42;;;;;;;4.80;2.95;;;22.20;92.00;;;;;;5127855;28;20087;-78
2023/09/02 20:09:09;;;;;;;5.63;3.42;;;22.20;92.40;;;;;;5087437;28;20107;-77
2023/09/02 20:11:35;;;;;;;5.47;3.50;;;22.30;92.50;;;;;;5123231;28;20043;-77
2023/09/02 20:14:03;;;;;;;9.90;3.50;;;22.20;92.40;;;;;;5087894;28;20321;-79
2023/09/02 20:16:30;;;;;;;4.50;2.95;;;22.20;92.50;;;;;;5106858;28;20099;-78
2023/09/02 20:18:59;;;;;;;6.15;3.42;;;22.10;92.90;;;;;;5125145;28;20098;-78
2023/09/02 20:21:25;;;;;;;5.95;3.45;;;22.00;93.10;;;;;;5088652;28;20102;-77
2023/09/02 20:23:55;;;;;;;6.85;3.10;;;21.90;93.30;;;;;;5105057;28;20031;-77
2023/09/02 20:26:22;;;;;;;5.47;3.10;;;21.80;93.50;;;;;;5122644;28;20031;-80
2023/09/02 20:28:48;;;;;;;6.55;3.83;;;21.70;93.60;;;;;;5123042;28;20329;-77
2023/09/02 20:31:15;;;;;;;6.20;3.53;;;21.70;93.80;;;;;;5122900;28;20020;-76
2023/09/02 20:33:45;;;;;;;5.03;3.22;;;21.70;93.70;;;;;;5123003;28;20042;-78
2023/09/02 20:36:15;;;;;;;6.13;3.78;;;21.60;93.90;;;;;;5099593;28;20039;-78
2023/09/02 20:38:43;;;;;;;6.30;3.53;;;21.60;94.20;;;;;;5143493;28;20229;-79
2023/09/02 20:41:13;;;;;;;6.93;3.58;;;21.50;94.50;;;;;;5143307;28;20034;-79
2023/09/02 20:43:39;;;;;;;10.35;3.75;;;21.40;94.70;;;;;;5143808;28;20031;-78
2023/09/02 20:46:05;;;;;;;6.40;3.40;;;21.20;94.90;;;;;;5120866;28;20369;-78
2023/09/02 20:48:32;;;;;;;8.02;3.50;;;21.10;95.20;;;;;;5105644;28;20036;-77
2023/09/02 20:50:59;;;;;;;7.07;3.25;;;21.00;95.40;;;;;;5118360;28;20090;-78
2023/09/02 20:53:25;;;;;;;5.68;3.63;;;21.00;95.50;;;;;;5125522;28;20047;-78
2023/09/02 20:55:51;;;;;;;7.13;3.53;;;21.00;95.70;;;;;;5108939;28;20036;-78
2023/09/02 20:58:17;;;;;;;5.38;3.05;;;20.90;95.80;;;;;;5130132;27;20063;-79
2023/09/02 21:00:42;;;;;;;6.57;4.30;;;20.90;95.80;;;;;;5126948;28;20099;-76
2023/09/02 21:03:11;;;;;;;9.88;4.38;;;20.90;96.10;;;;;;5134041;27;20027;-78
2023/09/02 21:05:49;;;;;;;6.60;4.32;;;20.90;96.10;;;;;;5130887;27;20043;-78
2023/09/02 21:08:17;;;;;;;8.02;4.43;;;20.80;96.20;;;;;;5133939;27;20672;-78
2023/09/02 21:10:43;;;;;;;7.32;4.07;;;20.80;96.50;;;;;;5091898;28;20027;-77